Time;durP1;ratioP1;P1;durP2;ratioP2;P2;SDS_P1;SDS_P2;PMS_P1;PMS_P2;Temp;Humidity;BMP_temperature;BMP_pressure;BME280_temperature;BME280_humidity;BME280_pressure;Samples;Min_cycle;Max_cycle;Signal;HPM_P1;HPM_P2
2022/05/18 00:04:07;;;;;;;30.63;23.38;;;;;;;16.90;100.00;101944.63;10499311;28;20040;-76
2022/05/18 00:09:08;;;;;;;36.47;23.83;;;;;;;16.81;100.00;101939.88;10497070;28;20028;-77
2022/05/18 00:14:08;;;;;;;34.58;23.48;;;;;;;16.70;100.00;101944.47;10493222;28;20094;-76
2022/05/18 00:19:09;;;;;;;33.25;23.50;;;;;;;16.58;100.00;101941.06;10496596;28;20381;-75
2022/05/18 00:24:10;;;;;;;35.70;24.38;;;;;;;16.43;100.00;101939.03;10498787;28;20055;-75
2022/05/18 00:29:11;;;;;;;31.35;22.70;;;;;;;16.31;100.00;101928.97;10498679;28;20571;-76
2022/05/18 00:34:11;;;;;;;38.15;24.23;;;;;;;16.19;100.00;101933.88;10497915;28;20032;-76
2022/05/18 00:39:12;;;;;;;32.33;23.45;;;;;;;16.08;100.00;101926.56;10493420;28;20435;-76
2022/05/18 00:44:12;;;;;;;35.67;23.23;;;;;;;15.97;100.00;101938.72;10455342;28;20357;-75
2022/05/18 00:49:13;;;;;;;32.50;22.15;;;;;;;15.84;100.00;101931.66;10456356;28;20029;-76
2022/05/18 00:54:13;;;;;;;35.35;21.90;;;;;;;15.75;100.00;101922.97;10455044;28;20069;-73
2022/05/18 00:59:16;;;;;;;30.27;20.50;;;;;;;15.62;100.00;101918.63;10458787;28;20140;-75
2022/05/18 01:04:17;;;;;;;30.33;22.13;;;;;;;15.64;100.00;101933.09;10448313;28;20048;-76
2022/05/18 01:09:29;;;;;;;35.03;22.50;;;;;;;15.60;100.00;101936.66;10463964;28;20040;-76
2022/05/18 01:14:32;;;;;;;30.15;20.10;;;;;;;15.53;100.00;101932.16;10463899;28;20037;-77
2022/05/18 01:19:52;;;;;;;28.40;19.50;;;;;;;15.47;100.00;101933.22;10464754;28;20624;-76
2022/05/18 01:25:02;;;;;;;26.20;18.10;;;;;;;15.47;100.00;101944.31;10462256;28;20064;-76
2022/05/18 01:30:03;;;;;;;27.58;17.65;;;;;;;15.41;100.00;101937.03;10462796;28;20037;-76
2022/05/18 01:35:04;;;;;;;24.77;16.95;;;;;;;15.34;100.00;101945.56;10461467;28;20054;-75
2022/05/18 01:40:30;;;;;;;23.48;15.50;;;;;;;15.26;100.00;101936.88;10462043;28;20108;-75
2022/05/18 01:45:30;;;;;;;24.38;16.85;;;;;;;15.17;100.00;101930.09;10441534;28;20040;-77
2022/05/18 01:50:31;;;;;;;22.60;15.98;;;;;;;15.08;100.00;101941.63;10471034;28;20103;-75
2022/05/18 01:55:32;;;;;;;25.48;16.85;;;;;;;15.03;100.00;101932.44;10503177;28;20024;-72
2022/05/18 02:00:32;;;;;;;22.02;16.15;;;;;;;14.97;100.00;101937.06;10501404;28;20128;-74
2022/05/18 02:05:33;;;;;;;24.50;16.67;;;;;;;14.71;100.00;101906.22;10503416;28;20045;-74
2022/05/18 02:10:33;;;;;;;21.38;15.77;;;;;;;14.88;100.00;101930.28;10484534;28;20048;-74
2022/05/18 02:15:34;;;;;;;20.20;15.23;;;;;;;14.86;100.00;101927.78;10501743;28;20092;-75
2022/05/18 02:20:35;;;;;;;19.98;15.75;;;;;;;14.83;100.00;101927.47;10486398;28;20245;-74
2022/05/18 02:25:36;;;;;;;25.05;15.32;;;;;;;14.80;100.00;101920.50;10460170;28;20102;-74
2022/05/18 02:30:37;;;;;;;22.13;15.35;;;;;;;14.75;100.00;101920.41;10458514;28;20508;-73
2022/05/18 02:35:40;;;;;;;25.02;16.23;;;;;;;14.67;100.00;101923.63;10460572;28;20039;-74
2022/05/18 02:40:41;;;;;;;28.75;15.65;;;;;;;14.57;100.00;101935.41;10460753;28;20045;-73
2022/05/18 02:45:41;;;;;;;22.85;15.43;;;;;;;14.47;100.00;101936.09;10461520;28;20057;-74
2022/05/18 02:50:47;;;;;;;22.00;15.68;;;;;;;14.40;100.00;101918.78;10477605;28;20036;-74
2022/05/18 03:01:08;;;;;;;24.23;17.25;;;;;;;14.27;100.00;101924.69;10458846;28;20037;-74
2022/05/18 03:06:09;;;;;;;21.55;15.48;;;;;;;14.22;100.00;101919.94;10459892;28;20033;-74
2022/05/18 03:11:10;;;;;;;20.45;15.23;;;;;;;14.20;100.00;101933.19;10458532;28;20112;-74
2022/05/18 03:16:10;;;;;;;26.50;17.83;;;;;;;14.16;100.00;101922.84;10459506;28;20036;-74
2022/05/18 03:26:30;;;;;;;21.42;14.85;;;;;;;14.08;100.00;101929.69;10455097;28;20113;-74
2022/05/18 03:31:30;;;;;;;22.38;15.90;;;;;;;14.01;100.00;101932.59;10458294;28;20045;-74
2022/05/18 03:36:32;;;;;;;23.00;16.20;;;;;;;13.93;100.00;101931.09;10458189;28;20386;-74
2022/05/18 03:41:35;;;;;;;24.27;16.02;;;;;;;13.89;100.00;101929.06;10458555;28;20160;-74
2022/05/18 03:46:35;;;;;;;25.05;16.52;;;;;;;13.86;100.00;101935.94;10458395;28;20045;-74
2022/05/18 03:51:37;;;;;;;24.10;16.73;;;;;;;13.81;100.00;101935.88;10457282;28;20041;-74
2022/05/18 03:56:37;;;;;;;22.02;16.48;;;;;;;13.68;100.00;101927.88;10487703;28;20051;-74
2022/05/18 04:01:40;;;;;;;21.58;16.55;;;;;;;13.59;100.00;101918.31;10463482;28;20492;-74
2022/05/18 04:06:41;;;;;;;24.85;17.60;;;;;;;13.71;100.00;101944.81;10457400;28;20032;-74
2022/05/18 04:11:41;;;;;;;26.45;17.40;;;;;;;13.69;100.00;101941.47;10471793;28;20037;-74
2022/05/18 04:16:42;;;;;;;26.58;17.75;;;;;;;13.68;100.00;101955.53;10498419;28;20032;-74
2022/05/18 04:21:42;;;;;;;26.95;17.67;;;;;;;13.65;100.00;101945.00;10497896;28;20045;-74
2022/05/18 04:26:43;;;;;;;25.05;17.40;;;;;;;13.67;100.00;101943.63;10477500;28;20037;-74
2022/05/18 04:31:43;;;;;;;22.02;17.38;;;;;;;13.63;100.00;101936.09;10454798;28;20056;-74
2022/05/18 04:36:44;;;;;;;23.67;16.60;;;;;;;13.79;100.00;101951.03;10467724;28;20033;-73
2022/05/18 04:41:44;;;;;;;20.25;15.80;;;;;;;13.89;100.00;101946.53;10470371;28;20041;-73
2022/05/18 04:46:45;;;;;;;19.67;15.52;;;;;;;14.01;100.00;101949.19;10470728;28;20036;-73
2022/05/18 04:51:46;;;;;;;28.35;16.48;;;;;;;14.13;100.00;101951.91;10469317;28;20041;-66
2022/05/18 04:56:46;;;;;;;23.77;14.05;;;;;;;14.21;100.00;101959.78;10470218;28;20044;-74
2022/05/18 05:01:46;;;;;;;17.75;13.77;;;;;;;14.31;100.00;101971.03;10480731;28;20071;-74
2022/05/18 05:06:47;;;;;;;21.00;14.35;;;;;;;14.45;100.00;101981.75;10511528;28;20033;-74
2022/05/18 05:11:48;;;;;;;16.27;13.18;;;;;;;14.55;100.00;101976.38;10511532;28;20071;-73
2022/05/18 05:16:49;;;;;;;15.75;12.60;;;;;;;14.68;100.00;101970.50;10511741;28;20033;-73
2022/05/18 05:21:49;;;;;;;23.60;13.20;;;;;;;14.56;100.00;101922.66;10507818;28;20094;-76
2022/05/18 05:26:50;;;;;;;15.77;13.48;;;;;;;14.99;100.00;101976.47;10510853;28;20040;-74
2022/05/18 05:31:50;;;;;;;18.60;11.90;;;;;;;15.21;100.00;101978.41;10510650;28;20041;-75
2022/05/18 05:36:51;;;;;;;18.05;12.10;;;;;;;15.43;100.00;101993.09;10511865;28;20032;-73
2022/05/18 05:41:51;;;;;;;15.10;10.10;;;;;;;15.68;100.00;101984.22;10510797;28;20040;-74
2022/05/18 05:46:51;;;;;;;17.48;10.77;;;;;;;15.99;100.00;101986.50;10502110;28;20048;-71
2022/05/18 05:51:52;;;;;;;11.57;9.32;;;;;;;16.29;100.00;101989.53;10479166;28;20074;-74
2022/05/18 05:56:52;;;;;;;13.90;9.90;;;;;;;16.73;100.00;101977.31;10502503;28;20036;-74
2022/05/18 06:01:53;;;;;;;14.18;9.05;;;;;;;17.13;100.00;101982.28;10485162;28;20043;-74
2022/05/18 06:06:53;;;;;;;11.43;8.70;;;;;;;17.51;100.00;101985.78;10485814;28;20055;-75
2022/05/18 06:11:54;;;;;;;13.82;8.73;;;;;;;17.85;100.00;101971.38;10503831;28;20028;-77
2022/05/18 06:16:54;;;;;;;10.10;7.20;;;;;;;18.18;100.00;101985.88;10488001;28;20770;-76
2022/05/18 06:21:55;;;;;;;15.00;7.90;;;;;;;18.44;100.00;101980.28;10482193;28;20104;-77
2022/05/18 06:26:57;;;;;;;14.20;8.35;;;;;;;18.65;100.00;101979.16;10485071;28;20041;-79
2022/05/18 06:31:58;;;;;;;9.27;7.80;;;;;;;18.94;100.00;101984.13;10466506;28;20045;-77
2022/05/18 06:36:58;;;;;;;12.20;8.02;;;;;;;19.18;100.00;101987.09;10486294;28;20063;-73
2022/05/18 06:41:59;;;;;;;10.50;7.97;;;;;;;19.29;100.00;101993.50;10485163;28;20048;-77
2022/05/18 06:47:00;;;;;;;12.20;8.32;;;;;;;19.50;100.00;101985.84;10482022;28;20028;-77
2022/05/18 06:52:00;;;;;;;12.40;8.00;;;;;;;19.46;100.00;101949.28;10441588;28;20045;-69
2022/05/18 06:57:01;;;;;;;11.18;7.80;;;;;;;20.04;100.00;101986.91;10481057;28;22270;-78
2022/05/18 07:02:01;;;;;;;10.98;7.90;;;;;;;20.34;100.00;101983.88;10499252;28;20041;-75
2022/05/18 07:07:02;;;;;;;13.45;7.78;;;;;;;20.57;100.00;101992.59;10500404;28;20029;-79
2022/05/18 07:12:02;;;;;;;13.50;7.53;;;;;;;20.70;100.00;101989.13;10474284;28;20051;-79
2022/05/18 07:17:03;;;;;;;9.10;7.40;;;;;;;20.85;100.00;101982.53;10497224;28;20369;-77
2022/05/18 07:22:05;;;;;;;12.52;8.55;;;;;;;21.00;100.00;101989.09;10497512;28;20116;-77
2022/05/18 07:27:05;;;;;;;11.00;7.60;;;;;;;21.10;100.00;101986.16;10495363;28;20042;-76
2022/05/18 07:32:09;;;;;;;12.13;7.63;;;;;;;21.37;100.00;101974.31;10497090;28;20510;-76
2022/05/18 07:37:10;;;;;;;13.20;7.57;;;;;;;21.71;100.00;101976.13;10499141;28;20028;-75
2022/05/18 07:42:11;;;;;;;17.17;8.18;;;;;;;21.84;100.00;101975.34;10496116;28;20462;-77
2022/05/18 07:47:12;;;;;;;11.82;8.15;;;;;;;22.01;100.00;101974.81;10495844;28;20079;-78
2022/05/18 07:52:12;;;;;;;11.60;8.13;;;;;;;22.10;100.00;101978.59;10493682;28;20067;-78
2022/05/18 07:57:13;;;;;;;11.68;7.80;;;;;;;22.19;100.00;101978.72;10494420;28;20098;-78
2022/05/18 08:02:13;;;;;;;10.73;7.88;;;;;;;22.38;100.00;101986.28;10476695;28;20404;-76
2022/05/18 08:07:14;;;;;;;12.02;7.70;;;;;;;22.58;100.00;101985.94;10497950;28;20028;-77
2022/05/18 08:17:34;;;;;;;10.00;8.45;;;;;;;22.84;100.00;101982.63;10491715;28;20090;-78
2022/05/18 08:22:34;;;;;;;13.80;8.70;;;;;;;23.18;100.00;101987.88;10494368;28;20068;-77
2022/05/18 08:27:41;;;;;;;9.95;7.43;;;;;;;23.43;100.00;101989.28;10497275;28;20051;-77
2022/05/18 08:32:42;;;;;;;9.73;7.63;;;;;;;23.54;100.00;101995.50;10479649;28;20071;-80
2022/05/18 08:37:47;;;;;;;11.40;7.30;;;;;;;23.60;100.00;101970.94;10494677;28;20036;-79
2022/05/18 08:42:47;;;;;;;14.13;8.02;;;;;;;23.98;100.00;101977.09;10492581;28;20535;-78
2022/05/18 08:48:20;;;;;;;12.13;7.22;;;;;;;24.42;100.00;101974.56;10496162;28;20563;-77
2022/05/18 08:53:38;;;;;;;9.23;7.75;;;;;;;24.66;100.00;101974.22;10475745;28;20209;-80
2022/05/18 08:58:44;;;;;;;10.95;6.18;;;;;;;24.88;92.86;101973.31;10493570;28;20128;-77
2022/05/18 09:03:47;;;;;;;10.30;6.05;;;;;;;24.85;87.37;101954.28;10493792;28;20499;-78
2022/05/18 09:10:12;;;;;;;8.93;6.07;;;;;;;25.14;91.71;101968.59;10456600;28;20100;-78
2022/05/18 09:14:12;;;;;;;6.35;4.47;;;;;;;25.37;84.57;101963.72;10481139;28;20581;-77
2022/05/18 09:19:40;;;;;;;6.82;3.97;;;;;;;25.67;83.33;101961.06;10465170;28;20070;-76
2022/05/18 09:25:04;;;;;;;8.73;4.28;;;;;;;25.88;81.00;101969.72;10488937;28;20048;-79
2022/05/18 09:30:23;;;;;;;9.63;4.18;;;;;;;26.18;78.65;101967.88;10489670;28;20041;-85
2022/05/18 09:35:51;;;;;;;8.98;4.00;;;;;;;26.22;72.96;101944.66;10488324;28;20470;-84
2022/05/18 09:40:52;;;;;;;7.25;4.03;;;;;;;26.69;77.56;101956.81;10491757;28;20110;-85
2022/05/18 09:45:52;;;;;;;7.85;3.97;;;;;;;26.89;73.22;101949.59;10490774;28;20102;-83
2022/05/18 09:50:54;;;;;;;6.50;4.07;;;;;;;27.15;72.62;101942.97;10488601;28;20032;-81
2022/05/18 09:55:54;;;;;;;7.50;4.00;;;;;;;27.24;69.89;101942.94;10471236;28;20045;-81
2022/05/18 10:11:33;;;;;;;6.78;3.78;;;;;;;27.93;70.06;101933.91;10474019;28;20029;-80
2022/05/18 10:16:44;;;;;;;5.68;4.53;;;;;;;28.03;68.92;101938.31;10487529;28;20057;-74
2022/05/18 10:21:55;;;;;;;7.10;4.55;;;;;;;28.43;71.43;101951.06;10493431;28;20060;-76
2022/05/18 10:27:12;;;;;;;8.90;3.67;;;;;;;28.51;69.06;101953.00;10496714;28;20094;-76
2022/05/18 10:32:22;;;;;;;7.10;4.00;;;;;;;28.61;69.12;101944.03;10497537;28;20066;-75
2022/05/18 10:37:37;;;;;;;8.40;3.60;;;;;;;28.66;67.30;101938.13;10500001;28;20040;-78
2022/05/18 10:42:52;;;;;;;6.93;3.50;;;;;;;28.94;66.33;101938.25;10498616;28;20049;-83
2022/05/18 10:47:56;;;;;;;8.70;3.88;;;;;;;29.00;64.43;101918.16;10490842;28;20152;-82
2022/05/18 10:53:00;;;;;;;6.65;3.85;;;;;;;29.26;65.10;101929.97;10498039;28;20063;-78
2022/05/18 10:58:05;;;;;;;4.00;3.40;;;;;;;29.21;65.17;101933.06;10472643;28;20415;-77
2022/05/18 11:03:18;;;;;;;7.30;3.90;;;;;;;29.44;63.49;101910.69;10497611;28;20043;-77
2022/05/18 11:08:21;;;;;;;6.20;4.10;;;;;;;29.73;63.23;101908.72;10461680;28;20040;-78
2022/05/18 11:14:03;;;;;;;9.88;4.38;;;;;;;29.92;62.42;101908.84;10496738;28;20067;-76
2022/05/18 11:19:29;;;;;;;6.55;3.70;;;;;;;30.09;61.82;101907.69;10497626;28;20045;-78
2022/05/18 11:24:31;;;;;;;;;;;;;;;30.41;61.27;101906.94;10440022;28;20048;-75
2022/05/18 11:29:43;;;;;;;7.03;3.65;;;;;;;30.55;58.22;101893.09;10473662;28;20384;-81
2022/05/18 11:35:02;;;;;;;9.35;3.85;;;;;;;30.78;57.89;101898.97;10497267;28;20033;-81
2022/05/18 11:40:08;;;;;;;7.18;3.17;;;;;;;31.30;57.68;101899.78;10498572;28;20044;-81
2022/05/18 11:45:29;;;;;;;6.07;2.90;;;;;;;31.68;57.26;101893.31;10498420;28;20127;-78
2022/05/18 11:50:50;;;;;;;7.85;4.55;;;;;;;31.92;57.69;101889.31;10497375;28;20070;-80
2022/05/18 11:56:00;;;;;;;5.20;3.53;;;;;;;31.74;56.42;101888.16;10481327;28;20049;-76
2022/05/18 12:01:05;;;;;;;6.25;3.30;;;;;;;32.44;55.62;101891.94;10494092;28;20465;-82
2022/05/18 12:06:26;;;;;;;6.87;3.37;;;;;;;32.76;54.92;101883.91;10493533;28;20036;-84
2022/05/18 12:11:46;;;;;;;6.53;3.92;;;;;;;32.57;52.11;101881.97;10498572;28;20293;-77
2022/05/18 12:17:04;;;;;;;6.82;3.38;;;;;;;32.13;55.89;101882.41;10473091;28;20052;-84
2022/05/18 12:22:12;;;;;;;5.05;4.15;;;;;;;31.72;53.64;101845.00;10462577;28;20101;-79
2022/05/18 12:27:15;;;;;;;7.00;3.60;;;;;;;32.45;54.37;101882.16;10486398;28;20040;-81
2022/05/18 12:32:15;;;;;;;9.90;4.10;;;;;;;32.07;55.21;101878.22;10495428;28;20423;-79
2022/05/18 12:37:28;;;;;;;11.20;5.43;;;;;;;32.45;52.44;101839.41;10479511;28;20043;-79
2022/05/18 12:42:28;;;;;;;7.88;4.05;;;;;;;31.39;54.67;101894.69;10493535;28;20068;-79
2022/05/18 12:47:52;;;;;;;7.70;4.15;;;;;;;30.74;55.56;101898.88;10461690;28;20044;-77
2022/05/18 12:52:56;;;;;;;7.82;3.22;;;;;;;30.56;56.11;101894.75;10494973;28;20042;-80
2022/05/18 12:58:27;;;;;;;8.93;4.88;;;;;;;30.32;58.97;101915.66;10501815;28;20068;-83
2022/05/18 13:03:57;;;;;;;10.05;4.40;;;;;;;29.90;58.46;101905.56;10470439;28;20047;-80
2022/05/18 13:09:01;;;;;;;9.23;4.70;;;;;;;29.67;58.45;101908.13;10482859;28;20120;-79
2022/05/18 13:14:01;;;;;;;6.22;2.92;;;;;;;29.50;58.83;101917.75;10445036;28;20033;-77
2022/05/18 13:19:02;;;;;;;7.88;3.53;;;;;;;29.68;59.18;101925.97;10463709;28;20037;-78
2022/05/18 13:24:05;;;;;;;6.55;3.35;;;;;;;29.88;57.17;101919.28;10462800;28;20037;-77
2022/05/18 13:29:12;;;;;;;10.57;3.28;;;;;;;29.52;59.34;101929.56;10461244;28;20063;-80
2022/05/18 13:34:14;;;;;;;7.78;3.63;;;;;;;28.79;59.67;101913.44;10461874;28;20060;-80
2022/05/18 13:39:26;;;;;;;8.07;3.80;;;;;;;28.35;61.10;101942.28;10460772;28;20056;-76
2022/05/18 13:44:28;;;;;;;12.93;8.77;;;;;;;27.98;62.35;101947.84;10460987;28;20041;-79
2022/05/18 13:49:31;;;;;;;16.13;10.50;;;;;;;27.59;63.46;101949.16;10460120;28;20114;-86
2022/05/18 13:54:33;;;;;;;16.50;10.45;;;;;;;27.06;66.56;101951.50;10457246;28;20041;-77
2022/05/18 13:59:35;;;;;;;16.95;12.05;;;;;;;26.99;66.86;101951.19;10460152;28;20041;-79
2022/05/18 14:04:40;;;;;;;19.70;13.02;;;;;;;26.82;68.48;101945.63;10443086;28;20106;-79
2022/05/18 14:09:43;;;;;;;19.30;14.70;;;;;;;26.72;69.32;101953.31;10458665;28;20022;-79
2022/05/18 14:14:43;;;;;;;20.15;15.10;;;;;;;26.87;70.94;101945.44;10461701;28;20033;-76
2022/05/18 14:19:45;;;;;;;22.10;15.88;;;;;;;26.64;72.18;101959.81;10460176;28;20119;-79
2022/05/18 14:24:52;;;;;;;27.38;21.40;;;;;;;26.34;74.08;101964.53;10443319;28;20438;-77
2022/05/18 14:29:54;;;;;;;28.42;23.05;;;;;;;26.21;75.93;101962.72;10448957;28;20048;-82
2022/05/18 14:34:58;;;;;;;34.60;22.20;;;;;;;26.05;78.92;101968.09;10424473;28;20044;-77
2022/05/18 14:39:59;;;;;;;32.20;23.35;;;;;;;25.52;81.83;101984.97;10441242;28;20041;-79
2022/05/18 14:45:04;;;;;;;32.85;24.23;;;;;;;25.19;83.44;101976.06;10458727;28;20048;-79
2022/05/18 14:50:18;;;;;;;31.25;24.23;;;;;;;25.14;83.48;101979.06;10460962;28;20044;-77
2022/05/18 14:55:40;;;;;;;30.83;23.45;;;;;;;25.67;84.67;101963.91;10457513;28;20033;-79
2022/05/18 15:00:41;;;;;;;31.25;23.33;;;;;;;26.45;80.37;101948.91;10458240;28;20051;-77
2022/05/18 15:05:43;;;;;;;30.88;22.23;;;;;;;27.25;77.36;101950.25;10443308;28;20036;-79
2022/05/18 15:10:52;;;;;;;30.05;21.70;;;;;;;27.44;75.26;101947.78;10500517;28;20037;-77
2022/05/18 15:15:58;;;;;;;28.58;21.67;;;;;;;27.49;75.52;101947.59;10498944;28;20040;-77
2022/05/18 15:21:08;;;;;;;30.05;19.65;;;;;;;27.93;74.36;101894.28;10500029;28;20041;-79
2022/05/18 15:26:23;;;;;;;23.35;19.27;;;;;;;28.36;72.19;101923.28;10498426;28;20528;-78
2022/05/18 15:31:26;;;;;;;23.63;18.05;;;;;;;28.46;72.91;101956.00;10455157;28;20036;-78
2022/05/18 15:36:27;;;;;;;26.65;18.35;;;;;;;28.07;73.53;101958.25;10456542;28;20116;-77
2022/05/18 15:41:28;;;;;;;28.45;19.58;;;;;;;28.02;71.90;101958.47;10456584;28;20522;-76
2022/05/18 15:46:32;;;;;;;29.77;21.20;;;;;;;27.37;72.84;101961.66;10458245;28;20049;-77
2022/05/18 15:51:32;;;;;;;33.00;21.05;;;;;;;26.46;75.74;101966.66;10439562;28;20057;-77
2022/05/18 15:56:34;;;;;;;29.35;21.48;;;;;;;26.28;76.35;101920.72;10454898;28;20033;-79
2022/05/18 16:01:34;;;;;;;31.02;22.33;;;;;;;26.50;76.39;101973.28;10456446;28;20083;-78
2022/05/18 16:06:35;;;;;;;35.55;20.05;;;;;;;26.32;76.01;101966.88;10455968;28;20064;-78
2022/05/18 16:11:36;;;;;;;28.98;19.13;;;;;;;26.24;76.59;101937.50;10456105;28;20092;-80
2022/05/18 16:16:36;;;;;;;28.13;19.45;;;;;;;26.03;76.19;101970.41;10454648;28;20037;-85
2022/05/18 16:21:37;;;;;;;30.73;17.90;;;;;;;25.46;77.79;101975.00;10454559;28;20044;-81
2022/05/18 16:26:38;;;;;;;26.40;18.27;;;;;;;24.91;80.66;101984.78;10454220;28;20092;-81
2022/05/18 16:31:38;;;;;;;25.45;16.80;;;;;;;24.59;82.97;101991.56;10453194;28;20063;-80
2022/05/18 16:36:39;;;;;;;25.98;18.35;;;;;;;24.35;84.03;101987.13;10455224;28;20040;-78
2022/05/18 16:41:39;;;;;;;25.20;16.58;;;;;;;24.09;85.87;102001.00;10456853;28;20036;-73
2022/05/18 16:46:41;;;;;;;28.10;19.25;;;;;;;23.73;85.80;101999.00;10455226;28;20074;-81
2022/05/18 16:51:41;;;;;;;29.17;18.23;;;;;;;23.54;86.50;101990.75;10471421;28;20102;-72
2022/05/18 16:56:42;;;;;;;28.63;18.48;;;;;;;23.16;89.35;101990.97;10492561;28;20067;-73
2022/05/18 17:01:44;;;;;;;30.60;16.90;;;;;;;23.23;90.90;101982.13;10490134;28;20044;-74
2022/05/18 17:06:44;;;;;;;32.08;18.95;;;;;;;22.79;89.84;102002.38;10437665;28;20060;-76
2022/05/18 17:11:47;;;;;;;26.88;17.80;;;;;;;22.45;91.41;101993.19;10453006;28;20045;-76
2022/05/18 17:16:56;;;;;;;27.17;17.50;;;;;;;22.48;94.93;102002.94;10482386;28;20108;-79
2022/05/18 17:21:56;;;;;;;25.15;16.13;;;;;;;22.51;94.74;102007.94;10497171;28;20060;-77
2022/05/18 17:27:16;;;;;;;29.60;16.98;;;;;;;22.47;93.07;102015.28;10496553;28;20480;-78
2022/05/18 17:32:16;;;;;;;28.65;15.73;;;;;;;21.75;93.31;101968.78;10478690;28;20033;-72
2022/05/18 17:37:17;;;;;;;24.85;16.55;;;;;;;21.74;94.87;102017.56;10478292;28;20036;-76
2022/05/18 17:42:17;;;;;;;26.13;15.27;;;;;;;21.37;97.20;102007.94;10498172;28;20037;-77
2022/05/18 17:47:22;;;;;;;22.98;14.45;;;;;;;21.17;99.80;102007.06;10503280;28;20033;-77
2022/05/18 17:52:23;;;;;;;22.08;15.13;;;;;;;20.97;100.00;102012.91;10482397;28;20537;-79
2022/05/18 17:57:24;;;;;;;24.42;14.65;;;;;;;20.90;100.00;102001.25;10475640;28;20036;-81
2022/05/18 18:02:27;;;;;;;21.38;14.80;;;;;;;20.72;100.00;102014.84;10490547;28;20041;-77
2022/05/18 18:07:27;;;;;;;23.35;15.07;;;;;;;20.48;100.00;102002.75;10490554;28;20037;-78
2022/05/18 18:12:28;;;;;;;21.70;13.43;;;;;;;20.32;100.00;102008.50;10499606;28;20118;-78
2022/05/18 18:17:30;;;;;;;22.95;13.25;;;;;;;20.19;100.00;102006.34;10479086;28;20040;-83
2022/05/18 18:22:30;;;;;;;23.10;14.07;;;;;;;20.07;100.00;102003.09;10456303;28;20056;-79
2022/05/18 18:27:35;;;;;;;24.20;14.43;;;;;;;20.06;100.00;102013.44;10457252;28;20090;-78
2022/05/18 18:32:41;;;;;;;20.33;15.73;;;;;;;19.91;100.00;102006.00;10475280;28;20040;-79
2022/05/18 18:37:42;;;;;;;25.90;15.63;;;;;;;19.84;100.00;102008.28;10451537;28;20097;-80
2022/05/18 18:42:43;;;;;;;19.52;14.48;;;;;;;19.76;100.00;102003.31;10456864;28;20444;-79
2022/05/18 18:47:43;;;;;;;24.83;14.93;;;;;;;19.72;100.00;102002.22;10457630;28;20064;-78
2022/05/18 18:58:03;;;;;;;37.65;22.05;;;;;;;19.36;100.00;102006.00;10459802;28;20067;-79
2022/05/18 19:03:03;;;;;;;39.90;24.25;;;;;;;19.20;100.00;102017.53;10440721;28;20049;-79
2022/05/18 19:08:04;;;;;;;39.00;23.98;;;;;;;18.91;100.00;102012.59;10459844;28;20029;-78
2022/05/18 19:13:05;;;;;;;50.67;24.75;;;;;;;18.71;100.00;102000.34;10477334;28;20043;-79
2022/05/18 19:18:07;;;;;;;31.23;23.77;;;;;;;18.51;100.00;101998.41;10498378;28;20048;-80
2022/05/18 19:23:08;;;;;;;40.22;24.55;;;;;;;18.45;100.00;102009.84;10493923;28;20115;-81
2022/05/18 19:28:12;;;;;;;38.70;26.95;;;;;;;18.28;100.00;102010.97;10473493;28;20044;-74
2022/05/18 19:33:13;;;;;;;37.50;25.63;;;;;;;18.11;100.00;102002.06;10457421;28;20620;-74
2022/05/18 19:38:13;;;;;;;42.53;26.08;;;;;;;17.98;100.00;102003.44;10456148;28;20558;-74
2022/05/18 19:43:23;;;;;;;39.88;27.83;;;;;;;17.88;100.00;102003.41;10457834;28;20063;-74
2022/05/18 19:48:25;;;;;;;39.78;27.05;;;;;;;17.67;100.00;101992.22;10455684;28;20164;-73
2022/05/18 19:53:25;;;;;;;42.95;26.88;;;;;;;17.59;100.00;101994.69;10455767;28;20106;-74
2022/05/18 19:58:32;;;;;;;44.70;26.98;;;;;;;17.49;100.00;101989.94;10455875;28;20833;-73
2022/05/18 20:03:32;;;;;;;47.08;31.30;;;;;;;17.38;100.00;101988.22;10456778;28;20431;-74
2022/05/18 20:08:33;;;;;;;39.60;28.30;;;;;;;17.07;100.00;101966.66;10456376;28;20068;-74
2022/05/18 20:13:36;;;;;;;42.58;30.27;;;;;;;17.22;100.00;101999.31;10454724;28;20037;-73
2022/05/18 20:18:36;;;;;;;46.45;32.70;;;;;;;17.18;100.00;101991.75;10455002;28;20040;-73
2022/05/18 20:23:37;;;;;;;46.58;32.95;;;;;;;17.09;100.00;101995.06;10492519;28;20042;-73
2022/05/18 20:28:37;;;;;;;45.15;31.33;;;;;;;17.00;100.00;101977.22;10497125;28;20040;-73
2022/05/18 20:33:38;;;;;;;45.30;31.95;;;;;;;16.96;100.00;101998.34;10494663;28;20024;-73
2022/05/18 20:38:38;;;;;;;44.13;31.63;;;;;;;16.85;100.00;101999.41;10496380;28;20115;-74
2022/05/18 20:43:40;;;;;;;47.47;32.22;;;;;;;16.66;100.00;101991.47;10495671;28;20492;-74
2022/05/18 20:48:40;;;;;;;46.67;33.20;;;;;;;16.63;100.00;102000.34;10459231;28;20125;-72
2022/05/18 20:53:41;;;;;;;41.00;31.25;;;;;;;16.57;100.00;101986.69;10496048;28;20037;-73
2022/05/18 20:58:41;;;;;;;41.63;32.28;;;;;;;16.48;100.00;101978.84;10511775;28;20048;-74
2022/05/18 21:03:42;;;;;;;47.17;32.92;;;;;;;15.31;100.00;101825.94;10495316;28;20047;-71
2022/05/18 21:08:42;;;;;;;56.15;33.88;;;;;;;16.16;100.00;101967.75;10494665;28;20044;-74
2022/05/18 21:13:43;;;;;;;48.08;33.40;;;;;;;16.20;100.00;101979.16;10495623;28;20032;-71
2022/05/18 21:18:43;;;;;;;48.70;35.33;;;;;;;16.17;100.00;101963.88;10500793;28;20074;-73
2022/05/18 21:23:44;;;;;;;47.47;34.78;;;;;;;16.05;100.00;101960.44;10502772;28;20033;-74
2022/05/18 21:28:44;;;;;;;57.92;37.40;;;;;;;16.09;100.00;101972.69;10501307;28;20037;-74
2022/05/18 21:33:45;;;;;;;47.88;35.47;;;;;;;16.05;100.00;101963.22;10482022;28;20056;-74
2022/05/18 21:38:47;;;;;;;53.53;36.45;;;;;;;15.99;100.00;101958.72;10460497;28;20033;-73
2022/05/18 21:43:49;;;;;;;53.40;36.08;;;;;;;15.93;100.00;101958.66;10460366;28;20052;-73
2022/05/18 21:48:49;;;;;;;52.17;36.63;;;;;;;15.96;100.00;101962.88;10483361;28;20041;-73
2022/05/18 21:53:50;;;;;;;54.45;36.72;;;;;;;16.03;100.00;101948.75;10502203;28;20047;-72
2022/05/18 21:58:50;;;;;;;52.58;36.38;;;;;;;16.04;100.00;101942.94;10502330;28;20041;-72
2022/05/18 22:03:51;;;;;;;56.15;38.20;;;;;;;16.01;100.00;101926.78;10515995;28;20045;-73
2022/05/18 22:08:51;;;;;;;60.63;37.38;;;;;;;15.92;100.00;101909.78;10483015;28;20041;-73
2022/05/18 22:13:56;;;;;;;61.28;38.42;;;;;;;15.84;100.00;101924.16;10491473;28;20049;-73
2022/05/18 22:19:19;;;;;;;55.85;38.95;;;;;;;15.74;100.00;101915.72;10443018;28;20033;-72
2022/05/18 22:24:17;;;;;;;59.00;38.67;;;;;;;15.68;100.00;101914.81;10461373;28;20037;-73
2022/05/18 22:29:19;;;;;;;64.35;42.90;;;;;;;15.68;100.00;101911.19;10471113;28;20040;-74
2022/05/18 22:34:19;;;;;;;62.53;43.05;;;;;;;15.72;100.00;101924.31;10458673;28;20033;-74
2022/05/18 22:39:20;;;;;;;63.22;43.05;;;;;;;15.73;100.00;101905.75;10460156;28;20069;-73
2022/05/18 22:44:34;;;;;;;69.53;46.35;;;;;;;15.87;100.00;101909.72;10458158;28;20052;-73
2022/05/18 22:49:35;;;;;;;69.75;49.05;;;;;;;15.90;100.00;101920.31;10461409;28;20067;-73
2022/05/18 22:54:35;;;;;;;71.00;48.85;;;;;;;15.80;100.00;101892.47;10442537;28;20041;-73
2022/05/18 22:59:36;;;;;;;70.90;51.08;;;;;;;15.93;100.00;101892.00;10458265;28;20037;-72
2022/05/18 23:04:36;;;;;;;69.53;51.15;;;;;;;15.94;100.00;101892.88;10459060;28;20044;-73
2022/05/18 23:09:38;;;;;;;72.57;53.28;;;;;;;15.94;100.00;101895.66;10459464;28;20040;-73
2022/05/18 23:14:39;;;;;;;78.50;53.70;;;;;;;15.93;100.00;101877.28;10459255;28;20390;-73
2022/05/18 23:19:45;;;;;;;80.28;54.45;;;;;;;16.00;100.00;101879.84;10441103;28;20037;-73